Time;durP1;ratioP1;P1;durP2;ratioP2;P2;SDS_P1;SDS_P2;PMS_P1;PMS_P2;Temp;Humidity;BMP_temperature;BMP_pressure;BME280_temperature;BME280_humidity;BME280_pressure;Samples;Min_cycle;Max_cycle;Signal;HPM_P1;HPM_P2
2023/07/07 00:00:47;;;;;;;7.87;5.17;;;17.00;99.90;;;;;;5029077;28;20672;-59
2023/07/07 00:03:13;;;;;;;6.03;5.23;;;17.00;99.90;;;;;;5028983;28;20210;-60
2023/07/07 00:05:42;;;;;;;6.30;4.80;;;17.00;99.90;;;;;;5033647;28;20218;-59
2023/07/07 00:08:07;;;;;;;5.47;4.97;;;17.10;99.90;;;;;;5044931;28;20209;-58
2023/07/07 00:10:33;;;;;;;7.83;5.00;;;17.10;99.90;;;;;;5044303;28;20187;-58
2023/07/07 00:12:58;;;;;;;5.20;4.70;;;17.10;99.90;;;;;;5047926;28;20194;-58
2023/07/07 00:15:24;;;;;;;8.60;5.07;;;17.10;99.90;;;;;;5041618;28;20210;-57
2023/07/07 00:17:50;;;;;;;5.13;4.63;;;17.00;99.90;;;;;;5037358;28;20268;-57
2023/07/07 00:20:16;;;;;;;7.10;4.77;;;17.00;99.90;;;;;;5037654;28;20205;-57
2023/07/07 00:22:41;;;;;;;7.20;4.93;;;16.90;99.90;;;;;;5036340;28;20191;-58
2023/07/07 00:25:08;;;;;;;8.43;5.77;;;16.90;99.90;;;;;;5037617;28;20202;-57
2023/07/07 00:27:34;;;;;;;6.10;5.00;;;16.80;99.90;;;;;;5037583;28;20208;-58
2023/07/07 00:30:00;;;;;;;5.70;5.07;;;16.80;99.90;;;;;;5037719;28;20206;-58
2023/07/07 00:32:25;;;;;;;5.67;5.07;;;16.70;99.90;;;;;;5037364;28;20209;-58
2023/07/07 00:34:51;;;;;;;6.03;5.47;;;16.60;99.90;;;;;;5035532;28;20206;-57
2023/07/07 00:37:17;;;;;;;5.50;4.90;;;16.50;99.90;;;;;;5037563;28;20864;-58
2023/07/07 00:39:42;;;;;;;6.13;5.30;;;16.50;99.90;;;;;;5037663;28;20514;-58
2023/07/07 00:42:10;;;;;;;5.60;5.07;;;16.40;99.90;;;;;;5037220;28;20214;-57
2023/07/07 00:45:13;;;;;;;6.97;5.03;;;16.40;99.90;;;;;;5037364;28;20246;-60
2023/07/07 00:48:02;;;;;;;5.93;5.43;;;16.40;99.90;;;;;;5035519;28;20287;-57
2023/07/07 00:50:33;;;;;;;5.93;4.83;;;16.40;99.90;;;;;;5039610;28;20206;-58
2023/07/07 00:52:59;;;;;;;7.37;5.30;;;16.40;99.90;;;;;;5054554;28;20202;-58
2023/07/07 00:55:38;;;;;;;5.00;4.27;;;16.30;99.90;;;;;;5055024;28;20661;-57
2023/07/07 00:58:07;;;;;;;5.10;4.60;;;16.30;99.90;;;;;;5056169;28;20217;-58
2023/07/07 01:00:35;;;;;;;7.23;4.70;;;16.30;99.90;;;;;;5053869;28;20194;-57
2023/07/07 01:03:16;;;;;;;6.73;5.57;;;16.30;99.90;;;;;;5053724;28;21013;-58
2023/07/07 01:05:43;;;;;;;8.60;5.63;;;16.30;99.90;;;;;;5032669;28;20748;-58
2023/07/07 01:08:08;;;;;;;7.50;4.83;;;16.30;99.90;;;;;;5037267;28;20213;-58
2023/07/07 01:10:34;;;;;;;5.73;5.13;;;16.20;99.90;;;;;;5036561;28;20633;-57
2023/07/07 01:13:00;;;;;;;5.57;5.07;;;16.20;99.90;;;;;;5036809;28;20202;-58
2023/07/07 01:15:29;;;;;;;8.87;5.10;;;16.20;99.90;;;;;;5036620;28;20198;-58
2023/07/07 01:18:13;;;;;;;6.07;4.87;;;16.20;99.90;;;;;;5036606;28;20264;-59
2023/07/07 01:21:01;;;;;;;7.23;4.87;;;16.20;99.90;;;;;;5035714;28;20865;-59
2023/07/07 01:23:56;;;;;;;11.87;4.30;;;16.10;99.90;;;;;;5019746;28;20205;-58
2023/07/07 01:26:45;;;;;;;6.07;5.57;;;16.10;99.90;;;;;;5053075;28;20202;-59
2023/07/07 01:29:24;;;;;;;7.17;5.10;;;16.10;99.90;;;;;;5046399;28;20676;-58
2023/07/07 01:32:15;;;;;;;4.90;4.50;;;16.00;99.90;;;;;;5044713;28;20202;-58
2023/07/07 01:34:40;;;;;;;7.37;4.90;;;16.00;99.90;;;;;;5039634;28;20214;-58
2023/07/07 01:37:06;;;;;;;6.47;5.03;;;16.00;99.90;;;;;;5044012;28;20224;-59
2023/07/07 01:39:32;;;;;;;6.73;5.37;;;15.90;99.90;;;;;;5044113;28;20813;-60
2023/07/07 01:42:12;;;;;;;5.40;4.90;;;15.90;99.90;;;;;;5046151;28;20234;-59
2023/07/07 01:44:53;;;;;;;5.73;4.53;;;15.90;99.90;;;;;;5042625;28;20205;-58
2023/07/07 01:47:23;;;;;;;7.37;4.60;;;16.00;99.90;;;;;;5042154;28;20543;-58
2023/07/07 01:50:17;;;;;;;6.83;5.43;;;16.00;99.90;;;;;;5040821;28;20227;-58
2023/07/07 01:52:54;;;;;;;5.07;4.33;;;15.90;99.90;;;;;;5035552;28;20202;-58
2023/07/07 01:55:23;;;;;;;9.43;5.27;;;15.80;99.90;;;;;;5042737;28;20206;-61
2023/07/07 01:57:53;;;;;;;5.17;4.67;;;15.80;99.90;;;;;;5036564;28;20214;-60
2023/07/07 02:00:19;;;;;;;6.83;5.60;;;15.70;99.90;;;;;;5036490;28;20192;-58
2023/07/07 02:02:45;;;;;;;7.30;4.93;;;15.70;99.90;;;;;;5046489;28;20213;-58
2023/07/07 02:05:12;;;;;;;6.53;4.97;;;15.60;99.90;;;;;;5042107;28;20262;-58
2023/07/07 02:07:39;;;;;;;6.37;5.37;;;15.60;99.90;;;;;;5034188;28;20214;-59
2023/07/07 02:10:04;;;;;;;5.77;4.97;;;15.60;99.90;;;;;;5036700;28;20576;-59
2023/07/07 02:12:30;;;;;;;8.13;5.17;;;15.60;99.90;;;;;;5031166;28;20211;-58
2023/07/07 02:14:55;;;;;;;5.43;4.90;;;15.50;99.90;;;;;;5018243;28;20325;-59
2023/07/07 02:17:21;;;;;;;6.03;4.60;;;15.50;99.90;;;;;;5034026;28;20233;-58
2023/07/07 02:19:46;;;;;;;6.77;5.60;;;15.50;99.90;;;;;;5037053;28;20298;-59
2023/07/07 02:22:12;;;;;;;7.73;5.10;;;15.40;99.90;;;;;;5035772;28;20199;-59
2023/07/07 02:24:38;;;;;;;5.30;4.80;;;15.40;99.90;;;;;;5035983;28;20202;-58
2023/07/07 02:27:03;;;;;;;7.40;5.43;;;15.40;99.90;;;;;;5036089;28;20191;-59
2023/07/07 02:29:29;;;;;;;4.73;4.33;;;15.40;99.90;;;;;;5034209;28;20202;-59
2023/07/07 02:31:54;;;;;;;7.13;4.97;;;15.40;99.90;;;;;;5044497;28;20218;-59
2023/07/07 02:34:20;;;;;;;5.07;4.53;;;15.40;99.90;;;;;;5048217;28;20202;-59
2023/07/07 02:36:45;;;;;;;5.53;5.03;;;15.30;99.90;;;;;;5055102;28;20619;-58
2023/07/07 02:39:11;;;;;;;7.63;4.83;;;15.30;99.90;;;;;;5048150;28;20190;-59
2023/07/07 02:41:37;;;;;;;6.30;5.47;;;15.30;99.90;;;;;;5049589;28;20225;-59
2023/07/07 02:44:02;;;;;;;10.03;5.23;;;15.30;99.90;;;;;;5053511;28;20222;-59
2023/07/07 02:46:28;;;;;;;5.27;4.77;;;15.30;99.90;;;;;;5053941;28;20253;-58
2023/07/07 02:48:53;;;;;;;6.40;5.00;;;15.40;99.90;;;;;;5054610;28;20206;-58
2023/07/07 02:51:19;;;;;;;5.23;4.83;;;15.40;99.90;;;;;;5054884;28;20606;-59
2023/07/07 02:53:44;;;;;;;6.30;4.77;;;15.30;99.90;;;;;;5052693;28;20206;-59
2023/07/07 02:56:10;;;;;;;5.83;5.23;;;15.30;99.90;;;;;;5051384;28;20210;-58
2023/07/07 02:58:35;;;;;;;8.63;5.37;;;15.30;99.90;;;;;;5052088;28;20224;-59
2023/07/07 03:01:10;;;;;;;8.13;5.80;;;15.20;99.90;;;;;;5049377;28;20205;-59
2023/07/07 03:03:38;;;;;;;8.00;6.00;;;15.20;99.90;;;;;;5050437;28;20200;-59
2023/07/07 03:06:08;;;;;;;6.50;5.83;;;15.20;99.90;;;;;;5031977;28;20323;-57
2023/07/07 03:08:34;;;;;;;7.40;5.33;;;15.20;99.90;;;;;;5040728;28;20206;-58
2023/07/07 03:11:07;;;;;;;6.13;5.53;;;15.10;99.90;;;;;;5040142;28;20221;-58
2023/07/07 03:13:32;;;;;;;7.13;6.10;;;15.20;99.90;;;;;;5036993;28;20313;-58
2023/07/07 03:15:58;;;;;;;6.73;5.20;;;15.10;99.90;;;;;;5041863;28;20297;-58
2023/07/07 03:18:23;;;;;;;8.63;6.30;;;15.10;99.90;;;;;;5042090;28;20207;-58
2023/07/07 03:20:49;;;;;;;8.53;5.03;;;15.20;99.90;;;;;;5041464;28;20284;-60
2023/07/07 03:23:15;;;;;;;10.10;6.37;;;15.20;99.90;;;;;;5046793;28;20205;-58
2023/07/07 03:25:41;;;;;;;6.13;5.43;;;15.20;99.90;;;;;;5045230;28;20199;-58
2023/07/07 03:28:08;;;;;;;7.03;5.27;;;15.10;99.90;;;;;;5044802;28;20273;-58
2023/07/07 03:30:34;;;;;;;5.67;5.03;;;15.10;99.90;;;;;;5032659;28;20191;-59
2023/07/07 03:33:00;;;;;;;5.97;5.10;;;15.10;99.90;;;;;;5031546;28;20572;-57
2023/07/07 03:35:25;;;;;;;7.20;5.60;;;15.10;99.90;;;;;;5031666;28;20211;-58
2023/07/07 03:37:51;;;;;;;6.57;5.43;;;15.10;99.90;;;;;;5031497;28;21025;-58
2023/07/07 03:40:16;;;;;;;7.30;5.90;;;15.10;99.90;;;;;;5028398;28;20208;-59
2023/07/07 03:42:42;;;;;;;9.20;5.87;;;15.10;99.90;;;;;;5028110;28;20295;-58
2023/07/07 03:45:08;;;;;;;8.40;5.73;;;15.10;99.90;;;;;;5030270;28;20299;-58
2023/07/07 03:47:33;;;;;;;9.33;5.90;;;15.10;99.90;;;;;;5011449;28;20233;-58
2023/07/07 03:49:59;;;;;;;6.40;5.73;;;15.10;99.90;;;;;;5028676;28;20207;-57
2023/07/07 03:52:25;;;;;;;7.87;5.90;;;15.10;99.90;;;;;;5028437;28;20204;-58
2023/07/07 03:54:50;;;;;;;9.10;6.30;;;15.10;99.90;;;;;;5032624;28;20199;-57
2023/07/07 03:57:16;;;;;;;11.60;6.00;;;15.10;99.90;;;;;;5027027;28;20318;-57
2023/07/07 03:59:41;;;;;;;6.93;6.10;;;15.10;99.90;;;;;;5033871;28;20203;-57
2023/07/07 04:02:08;;;;;;;13.40;6.83;;;15.10;99.90;;;;;;5028781;28;20204;-57
2023/07/07 04:04:33;;;;;;;10.07;6.50;;;15.20;99.90;;;;;;5033939;28;20281;-58
2023/07/07 04:06:59;;;;;;;7.13;6.33;;;15.20;99.90;;;;;;5034589;28;20253;-58
2023/07/07 04:09:25;;;;;;;9.17;7.07;;;15.20;99.90;;;;;;5029866;28;20205;-59
2023/07/07 04:11:51;;;;;;;9.67;6.13;;;15.20;99.90;;;;;;5028540;28;20223;-59
2023/07/07 04:14:17;;;;;;;8.03;6.43;;;15.30;99.90;;;;;;5030699;28;20225;-60
2023/07/07 04:16:42;;;;;;;6.67;5.57;;;15.30;99.90;;;;;;5030695;28;20211;-58
2023/07/07 04:19:08;;;;;;;6.93;6.33;;;15.30;99.90;;;;;;5028928;28;20682;-58
2023/07/07 04:21:34;;;;;;;9.23;6.30;;;15.30;99.90;;;;;;5029704;28;20203;-58
2023/07/07 04:24:01;;;;;;;8.57;6.03;;;15.40;99.90;;;;;;5030548;28;20210;-58
2023/07/07 04:26:29;;;;;;;8.30;7.10;;;15.40;99.90;;;;;;5034067;28;20619;-58
2023/07/07 04:28:56;;;;;;;10.37;6.93;;;15.40;99.90;;;;;;5032911;28;20262;-57
2023/07/07 04:31:23;;;;;;;8.60;6.47;;;15.50;99.90;;;;;;5038465;28;20678;-57
2023/07/07 04:33:49;;;;;;;7.30;5.90;;;15.50;99.90;;;;;;5028589;28;20223;-58
2023/07/07 04:36:18;;;;;;;7.80;6.47;;;15.50;99.90;;;;;;5030371;28;20666;-59
2023/07/07 04:38:45;;;;;;;9.13;6.20;;;15.50;99.90;;;;;;5030634;28;20607;-59
2023/07/07 04:41:13;;;;;;;8.90;6.17;;;15.60;99.90;;;;;;5035640;28;20195;-58
2023/07/07 04:43:42;;;;;;;7.20;5.03;;;15.60;99.90;;;;;;5033837;28;20191;-58
2023/07/07 04:46:09;;;;;;;9.47;6.33;;;15.70;99.90;;;;;;5037584;28;20225;-58
2023/07/07 04:48:34;;;;;;;6.83;5.30;;;15.70;99.90;;;;;;5037977;28;20194;-58
2023/07/07 04:51:06;;;;;;;6.27;5.67;;;15.80;99.90;;;;;;5037144;28;20573;-58
2023/07/07 04:53:32;;;;;;;7.93;6.17;;;15.80;99.90;;;;;;5037640;28;20207;-57
2023/07/07 04:55:57;;;;;;;8.93;5.53;;;15.90;99.90;;;;;;5038443;28;20966;-58
2023/07/07 04:58:27;;;;;;;8.60;5.67;;;16.00;99.90;;;;;;5037192;28;20670;-57
2023/07/07 05:01:15;;;;;;;9.20;5.43;;;16.10;99.90;;;;;;5036833;28;20211;-57
2023/07/07 05:03:41;;;;;;;4.77;4.10;;;16.10;99.90;;;;;;5040122;28;20202;-57
2023/07/07 05:06:08;;;;;;;3.20;2.90;;;16.10;99.90;;;;;;5038842;28;20575;-58
2023/07/07 05:08:36;;;;;;;5.67;3.43;;;16.20;99.90;;;;;;5036730;28;20197;-58
2023/07/07 05:11:02;;;;;;;5.23;3.77;;;16.30;99.90;;;;;;5052962;28;20209;-58
2023/07/07 05:13:28;;;;;;;6.97;4.50;;;16.40;99.90;;;;;;5035751;28;20207;-57
2023/07/07 05:16:05;;;;;;;6.70;3.53;;;16.50;99.90;;;;;;5053635;28;20207;-57
2023/07/07 05:18:31;;;;;;;5.50;3.70;;;16.70;99.90;;;;;;5046950;28;20223;-60
2023/07/07 05:20:57;;;;;;;4.77;3.03;;;16.90;99.90;;;;;;5041270;28;20188;-58
2023/07/07 05:23:23;;;;;;;5.13;3.73;;;16.90;99.90;;;;;;5048154;28;20202;-59
2023/07/07 05:25:49;;;;;;;5.60;4.07;;;17.10;99.90;;;;;;5045334;28;20203;-59
2023/07/07 05:28:15;;;;;;;4.43;3.40;;;17.30;99.90;;;;;;5046211;28;20205;-62
2023/07/07 05:30:41;;;;;;;3.37;2.90;;;17.50;99.90;;;;;;5041004;28;20260;-65
2023/07/07 05:33:07;;;;;;;2.87;2.60;;;17.50;99.90;;;;;;5044135;28;20203;-64
2023/07/07 05:35:33;;;;;;;7.23;3.57;;;17.50;99.90;;;;;;5035814;28;20211;-64
2023/07/07 05:38:02;;;;;;;3.40;3.00;;;17.60;99.90;;;;;;5039793;28;20235;-67
2023/07/07 05:40:28;;;;;;;4.17;2.90;;;17.60;99.90;;;;;;5046435;28;20627;-67
2023/07/07 05:42:54;;;;;;;2.87;2.53;;;17.70;99.90;;;;;;5045206;28;20293;-68
2023/07/07 05:45:23;;;;;;;3.60;3.20;;;17.90;99.80;;;;;;5043768;28;20209;-67
2023/07/07 05:47:48;;;;;;;4.67;3.37;;;18.10;99.50;;;;;;5034101;28;20195;-69
2023/07/07 05:50:14;;;;;;;5.10;3.37;;;18.20;99.40;;;;;;5045189;28;20563;-65
2023/07/07 05:52:39;;;;;;;3.87;3.43;;;18.30;99.00;;;;;;5038135;28;20201;-66
2023/07/07 05:55:06;;;;;;;5.47;2.93;;;18.40;98.50;;;;;;5034151;28;20295;-65
2023/07/07 05:57:31;;;;;;;3.53;3.03;;;18.60;98.10;;;;;;5035423;28;20243;-66
2023/07/07 05:59:57;;;;;;;4.47;2.87;;;18.70;98.00;;;;;;5035806;28;20230;-68
2023/07/07 06:02:22;;;;;;;2.60;2.37;;;18.80;97.40;;;;;;5042896;28;20290;-66
2023/07/07 06:04:48;;;;;;;3.57;2.43;;;19.00;97.10;;;;;;5054509;28;20259;-66
2023/07/07 06:07:13;;;;;;;3.83;2.27;;;19.00;97.10;;;;;;5052242;28;20634;-65
2023/07/07 06:09:39;;;;;;;3.77;3.13;;;19.10;96.80;;;;;;5030623;28;20223;-66
2023/07/07 06:12:05;;;;;;;5.20;2.70;;;19.20;96.00;;;;;;5043281;28;20255;-67
2023/07/07 06:14:31;;;;;;;6.00;2.60;;;19.30;95.30;;;;;;5044963;28;20320;-67
2023/07/07 06:16:56;;;;;;;3.80;2.47;;;19.40;95.40;;;;;;5050248;28;20242;-66
2023/07/07 06:19:22;;;;;;;4.57;2.50;;;19.40;95.40;;;;;;5051594;28;20200;-66
2023/07/07 06:21:48;;;;;;;2.87;2.47;;;19.50;95.20;;;;;;5033817;28;20678;-66
2023/07/07 06:24:13;;;;;;;3.90;2.43;;;19.60;95.20;;;;;;5047572;28;20194;-70
2023/07/07 06:26:39;;;;;;;5.87;2.80;;;19.50;95.40;;;;;;5045595;28;20564;-68
2023/07/07 06:29:04;;;;;;;2.90;2.40;;;19.70;94.90;;;;;;5041573;28;20196;-69
2023/07/07 06:31:29;;;;;;;3.20;2.80;;;19.70;95.80;;;;;;5043334;28;20693;-69
2023/07/07 06:33:55;;;;;;;5.10;3.23;;;19.80;95.20;;;;;;5037244;28;20211;-65
2023/07/07 06:36:21;;;;;;;3.97;2.90;;;19.90;95.00;;;;;;5036360;28;20219;-68
2023/07/07 06:38:47;;;;;;;2.50;2.30;;;19.90;94.20;;;;;;5046909;28;20206;-66
2023/07/07 06:41:15;;;;;;;2.87;2.67;;;20.00;94.40;;;;;;5049615;28;20209;-65
2023/07/07 06:43:41;;;;;;;3.00;2.37;;;20.10;93.60;;;;;;5049209;28;20295;-64
2023/07/07 06:46:11;;;;;;;3.47;2.43;;;20.30;93.40;;;;;;5049188;28;20208;-65
2023/07/07 06:48:37;;;;;;;5.40;2.47;;;20.30;93.40;;;;;;5046027;28;20921;-65
2023/07/07 06:51:02;;;;;;;6.80;2.50;;;20.40;93.80;;;;;;5044513;28;20204;-64
2023/07/07 06:53:27;;;;;;;4.17;2.60;;;20.50;92.10;;;;;;5050804;28;20306;-64
2023/07/07 06:55:53;;;;;;;2.83;2.50;;;20.60;91.80;;;;;;5041107;28;20820;-67
2023/07/07 06:58:20;;;;;;;5.50;3.60;;;20.70;91.50;;;;;;5047085;28;20239;-65
2023/07/07 07:00:45;;;;;;;2.57;2.10;;;20.70;92.00;;;;;;5043012;28;20224;-64
2023/07/07 07:03:11;;;;;;;3.20;1.97;;;20.80;91.50;;;;;;5046904;28;20214;-65
2023/07/07 07:05:38;;;;;;;2.60;2.30;;;20.90;92.60;;;;;;5047976;28;20264;-64
2023/07/07 07:08:03;;;;;;;2.30;2.10;;;21.00;90.60;;;;;;5049779;28;20205;-65
2023/07/07 07:10:29;;;;;;;5.27;2.53;;;21.10;89.40;;;;;;5038812;28;21068;-66
2023/07/07 07:12:54;;;;;;;3.17;2.57;;;21.20;90.00;;;;;;5046029;28;20296;-65
2023/07/07 07:15:21;;;;;;;2.77;2.23;;;21.20;89.70;;;;;;5043615;28;20190;-65
2023/07/07 07:17:46;;;;;;;4.87;2.67;;;21.30;88.10;;;;;;5041290;28;20612;-66
2023/07/07 07:20:13;;;;;;;3.30;2.33;;;21.30;90.60;;;;;;5048037;28;20231;-66
2023/07/07 07:22:38;;;;;;;3.07;2.10;;;21.20;91.00;;;;;;5046855;28;20292;-65
2023/07/07 07:25:05;;;;;;;2.47;2.27;;;21.20;89.70;;;;;;5048890;28;20289;-65
2023/07/07 07:27:30;;;;;;;3.90;2.10;;;21.30;89.20;;;;;;5048478;28;20190;-65
2023/07/07 07:29:56;;;;;;;1.93;1.83;;;21.40;86.40;;;;;;5027025;28;20257;-65
2023/07/07 07:32:22;;;;;;;7.83;2.53;;;21.50;85.20;;;;;;5047436;28;20255;-64
2023/07/07 07:34:48;;;;;;;2.73;1.87;;;21.50;86.40;;;;;;5044514;28;20203;-67
2023/07/07 07:37:14;;;;;;;2.50;2.30;;;21.60;85.40;;;;;;5047625;28;20615;-65
2023/07/07 07:39:40;;;;;;;11.60;2.20;;;21.70;85.60;;;;;;5044204;28;20739;-65
2023/07/07 07:42:05;;;;;;;1.90;1.70;;;21.80;86.40;;;;;;5047404;28;20206;-67
2023/07/07 07:44:31;;;;;;;1.90;1.80;;;21.80;82.70;;;;;;5045311;28;20290;-64
2023/07/07 07:46:58;;;;;;;1.80;1.70;;;21.70;84.20;;;;;;5053613;28;20217;-65
2023/07/07 07:49:25;;;;;;;2.87;1.93;;;21.70;84.30;;;;;;5047302;28;20210;-66
2023/07/07 07:51:50;;;;;;;4.00;2.23;;;21.80;83.70;;;;;;5045876;28;20232;-65
2023/07/07 07:54:18;;;;;;;4.03;2.00;;;21.80;83.30;;;;;;5040859;28;20275;-64
2023/07/07 07:56:45;;;;;;;2.50;2.30;;;21.80;82.60;;;;;;5043765;28;20586;-65
2023/07/07 07:59:10;;;;;;;3.53;2.47;;;21.90;81.50;;;;;;5046355;28;20198;-65
2023/07/07 08:01:36;;;;;;;3.63;2.00;;;22.10;80.20;;;;;;5041311;28;20202;-66
2023/07/07 08:04:03;;;;;;;2.50;1.63;;;22.20;78.80;;;;;;5044665;28;20198;-65
2023/07/07 08:06:29;;;;;;;2.30;2.10;;;22.30;75.20;;;;;;5030848;28;20314;-66
2023/07/07 08:08:54;;;;;;;3.70;2.10;;;22.20;77.00;;;;;;5017501;28;20282;-68
2023/07/07 08:11:42;;;;;;;2.53;1.67;;;22.20;78.60;;;;;;5025099;28;20209;-67
2023/07/07 08:14:16;;;;;;;2.77;1.87;;;22.30;75.70;;;;;;5029606;28;20206;-65
2023/07/07 08:16:42;;;;;;;1.80;1.70;;;22.40;75.20;;;;;;5024763;28;20219;-66
2023/07/07 08:19:07;;;;;;;2.00;1.80;;;22.40;72.90;;;;;;5030275;28;20187;-66
2023/07/07 08:21:34;;;;;;;3.07;2.23;;;22.30;74.80;;;;;;5025451;28;20759;-67
2023/07/07 08:24:00;;;;;;;2.20;2.00;;;22.20;76.40;;;;;;5028662;28;20206;-66
2023/07/07 08:26:26;;;;;;;2.10;1.90;;;22.30;74.20;;;;;;5005242;28;20523;-74
2023/07/07 08:28:51;;;;;;;2.27;2.07;;;22.30;74.90;;;;;;5029867;28;20194;-67
2023/07/07 08:31:18;;;;;;;3.07;1.70;;;22.40;73.20;;;;;;5031829;28;20199;-68
2023/07/07 08:33:47;;;;;;;3.17;1.73;;;22.40;74.40;;;;;;5031449;28;20203;-68
2023/07/07 08:36:13;;;;;;;3.80;2.10;;;22.60;74.20;;;;;;5028967;28;20218;-70
2023/07/07 08:38:39;;;;;;;2.73;1.93;;;22.60;74.00;;;;;;5038440;28;20214;-68
2023/07/07 08:41:04;;;;;;;3.97;2.20;;;22.60;75.70;;;;;;5032361;28;20191;-71
2023/07/07 08:43:30;;;;;;;3.27;1.83;;;22.60;72.90;;;;;;5030142;28;20213;-67
2023/07/07 08:46:04;;;;;;;3.27;2.37;;;22.60;76.10;;;;;;5034906;28;20216;-69
2023/07/07 08:48:52;;;;;;;3.60;1.63;;;22.70;73.60;;;;;;5022057;28;20226;-71
2023/07/07 08:51:24;;;;;;;2.87;1.70;;;22.90;75.20;;;;;;5029596;28;20289;-69
2023/07/07 08:54:06;;;;;;;2.10;2.00;;;23.10;71.70;;;;;;5026171;28;20203;-69
2023/07/07 08:56:46;;;;;;;2.58;1.73;;;23.10;70.00;;;;;;5033889;28;20199;-72
2023/07/07 08:59:42;;;;;;;3.28;2.17;;;23.00;73.90;;;;;;5032107;28;20670;-69
2023/07/07 09:02:38;;;;;;;6.13;2.40;;;22.90;71.90;;;;;;5026479;28;20991;-68
2023/07/07 09:05:35;;;;;;;2.20;1.63;;;23.00;74.30;;;;;;5030891;28;20216;-69
2023/07/07 09:08:19;;;;;;;2.00;1.90;;;23.10;71.40;;;;;;5037985;28;20293;-71
2023/07/07 09:10:54;;;;;;;1.55;1.27;;;23.20;71.30;;;;;;5044139;28;20198;-69
2023/07/07 09:13:28;;;;;;;2.70;1.60;;;23.30;67.80;;;;;;5042059;28;20669;-70
2023/07/07 09:16:24;;;;;;;1.20;1.10;;;23.50;66.40;;;;;;5041315;28;20870;-69
2023/07/07 09:19:06;;;;;;;1.87;1.63;;;23.40;67.00;;;;;;5043896;28;20613;-69
2023/07/07 09:22:00;;;;;;;2.80;1.83;;;23.40;71.10;;;;;;5046430;28;20190;-70
2023/07/07 09:24:52;;;;;;;1.50;1.40;;;23.30;73.90;;;;;;5040097;28;20284;-73
2023/07/07 09:27:28;;;;;;;2.25;1.60;;;23.40;67.40;;;;;;5034390;28;20353;-67
2023/07/07 09:30:07;;;;;;;1.77;1.63;;;23.50;73.80;;;;;;5037383;28;20205;-66
2023/07/07 09:32:33;;;;;;;2.47;1.33;;;23.60;66.50;;;;;;5026578;28;20198;-67
2023/07/07 09:34:58;;;;;;;1.75;1.65;;;23.50;66.50;;;;;;5024521;28;20545;-66
2023/07/07 09:37:42;;;;;;;2.50;2.00;;;23.70;70.60;;;;;;5036352;28;20619;-67
2023/07/07 09:40:18;;;;;;;1.80;1.65;;;23.70;64.40;;;;;;5037942;28;20194;-70
2023/07/07 09:42:56;;;;;;;4.28;3.50;;;23.90;66.30;;;;;;5041126;28;20194;-71
2023/07/07 09:45:36;;;;;;;1.98;1.25;;;24.00;62.40;;;;;;5043530;28;20248;-72
2023/07/07 09:48:20;;;;;;;1.30;1.20;;;23.80;66.40;;;;;;5047112;28;20568;-71
2023/07/07 09:51:25;;;;;;;2.67;1.52;;;23.60;65.70;;;;;;5042934;28;20202;-72
2023/07/07 09:53:51;;;;;;;1.30;1.20;;;23.50;67.90;;;;;;5024774;28;20209;-71
2023/07/07 09:56:21;;;;;;;2.10;1.60;;;23.70;63.90;;;;;;5049014;28;20199;-65
2023/07/07 09:58:57;;;;;;;1.73;1.60;;;23.90;64.60;;;;;;5045863;28;20636;-65
2023/07/07 10:01:28;;;;;;;2.22;1.63;;;23.80;65.10;;;;;;5041583;28;20251;-68
2023/07/07 10:03:54;;;;;;;1.83;1.73;;;23.90;65.80;;;;;;5024955;28;20206;-70
2023/07/07 10:06:41;;;;;;;3.35;1.65;;;23.90;65.60;;;;;;5044597;28;20280;-70
2023/07/07 10:09:11;;;;;;;2.00;1.85;;;23.90;62.80;;;;;;5035229;28;20272;-68
2023/07/07 10:11:38;;;;;;;1.55;1.45;;;24.10;61.50;;;;;;5040053;28;20687;-70
2023/07/07 10:14:06;;;;;;;2.22;1.27;;;24.20;62.80;;;;;;5032419;28;20198;-68
2023/07/07 10:16:32;;;;;;;1.97;1.87;;;24.20;63.20;;;;;;5036642;28;20206;-68
2023/07/07 10:19:10;;;;;;;1.65;1.42;;;24.30;63.20;;;;;;5043301;28;20220;-69
2023/07/07 10:21:36;;;;;;;1.92;1.50;;;24.40;63.80;;;;;;5028107;28;20229;-68
2023/07/07 10:24:02;;;;;;;1.75;1.65;;;24.20;67.70;;;;;;5029226;28;20198;-68
2023/07/07 10:26:27;;;;;;;2.17;1.90;;;24.40;63.70;;;;;;5040609;28;20211;-68
2023/07/07 10:28:57;;;;;;;5.55;2.08;;;24.20;63.70;;;;;;5034853;28;20195;-69
2023/07/07 10:31:24;;;;;;;3.88;2.00;;;24.20;65.00;;;;;;5033896;28;20688;-70
2023/07/07 10:33:54;;;;;;;5.10;2.10;;;24.20;67.60;;;;;;5033615;28;20674;-71
2023/07/07 10:36:29;;;;;;;6.60;2.00;;;24.20;71.80;;;;;;5030818;28;20218;-69
2023/07/07 10:38:56;;;;;;;2.78;1.90;;;24.10;66.50;;;;;;5038306;28;20202;-65
2023/07/07 10:41:23;;;;;;;1.40;1.30;;;24.20;63.70;;;;;;5043112;28;20281;-67
2023/07/07 10:43:48;;;;;;;1.80;1.42;;;24.40;62.00;;;;;;5016250;28;20199;-65
2023/07/07 10:46:14;;;;;;;1.55;1.40;;;24.70;59.00;;;;;;5043039;28;20265;-65
2023/07/07 10:48:39;;;;;;;1.50;1.40;;;24.60;62.40;;;;;;5040107;28;20207;-66
2023/07/07 10:51:22;;;;;;;3.88;1.98;;;24.60;60.80;;;;;;5038701;28;20663;-66
2023/07/07 10:54:01;;;;;;;1.40;1.30;;;24.60;61.20;;;;;;5028403;28;20214;-67
2023/07/07 10:56:31;;;;;;;1.50;1.40;;;24.40;59.40;;;;;;5035334;28;20523;-65
2023/07/07 10:59:19;;;;;;;1.45;1.35;;;24.30;59.10;;;;;;5022781;28;20195;-64
2023/07/07 11:02:06;;;;;;;1.50;1.40;;;24.30;61.30;;;;;;5041901;28;20673;-70
2023/07/07 11:05:01;;;;;;;3.03;1.73;;;24.60;60.00;;;;;;5037947;28;20414;-65
2023/07/07 11:07:40;;;;;;;1.70;1.60;;;24.70;59.60;;;;;;5033003;28;20206;-67
2023/07/07 11:10:25;;;;;;;1.75;1.50;;;25.00;60.20;;;;;;5029979;28;20205;-65
2023/07/07 11:13:03;;;;;;;2.17;2.03;;;25.10;59.70;;;;;;5044390;28;20290;-65
2023/07/07 11:15:52;;;;;;;4.72;2.45;;;25.30;63.20;;;;;;5040043;28;20297;-67
2023/07/07 11:18:30;;;;;;;1.25;1.20;;;25.60;59.60;;;;;;5035638;28;21020;-66
2023/07/07 11:21:19;;;;;;;3.35;1.80;;;25.90;59.90;;;;;;5043724;28;20215;-68
2023/07/07 11:23:53;;;;;;;2.03;1.83;;;26.10;58.90;;;;;;5032719;28;20195;-66
2023/07/07 11:26:55;;;;;;;3.35;1.85;;;26.40;59.90;;;;;;5039238;28;20204;-66
2023/07/07 11:29:37;;;;;;;4.18;1.88;;;26.70;57.10;;;;;;5038516;28;20218;-66
2023/07/07 11:32:12;;;;;;;1.88;1.75;;;27.00;55.20;;;;;;5020217;28;20194;-66
2023/07/07 11:35:16;;;;;;;1.77;1.67;;;27.10;58.70;;;;;;5052250;28;20217;-66
2023/07/07 11:38:19;;;;;;;3.70;2.00;;;27.20;55.00;;;;;;5054158;28;20209;-66
2023/07/07 11:41:03;;;;;;;1.80;1.70;;;27.00;54.90;;;;;;5048320;28;20285;-67
2023/07/07 11:43:46;;;;;;;2.85;1.35;;;26.90;54.60;;;;;;5048192;28;20652;-66
2023/07/07 11:46:49;;;;;;;1.77;1.60;;;27.20;54.50;;;;;;5042837;28;20302;-66
2023/07/07 11:49:24;;;;;;;1.75;1.65;;;27.40;53.50;;;;;;5042917;28;20697;-66
2023/07/07 11:52:29;;;;;;;2.50;1.65;;;27.90;54.00;;;;;;5037308;28;20206;-66
2023/07/07 11:55:32;;;;;;;1.95;1.85;;;27.90;53.90;;;;;;5039863;28;20301;-66
2023/07/07 11:58:35;;;;;;;1.95;1.52;;;28.30;52.10;;;;;;5047695;28;20206;-65
2023/07/07 12:01:15;;;;;;;3.30;1.67;;;28.40;50.90;;;;;;5043193;28;20194;-66
2023/07/07 12:04:06;;;;;;;3.33;1.77;;;28.20;51.70;;;;;;5042107;28;20603;-66
2023/07/07 12:06:45;;;;;;;3.22;1.65;;;28.20;51.20;;;;;;5035854;28;20317;-66
2023/07/07 12:09:37;;;;;;;2.08;1.45;;;28.20;50.10;;;;;;5053277;28;20206;-65
2023/07/07 12:12:21;;;;;;;2.95;2.70;;;28.90;49.60;;;;;;5051759;28;20864;-66
2023/07/07 12:15:12;;;;;;;3.63;2.00;;;28.50;51.80;;;;;;5048402;28;20240;-66
2023/07/07 12:17:40;;;;;;;1.70;1.60;;;28.70;50.80;;;;;;5035797;28;20260;-66
2023/07/07 12:20:21;;;;;;;1.33;1.23;;;28.40;49.70;;;;;;5047588;28;20218;-66
2023/07/07 12:22:47;;;;;;;1.60;1.50;;;28.50;51.10;;;;;;5039944;28;20670;-66
2023/07/07 12:25:25;;;;;;;2.95;1.80;;;28.80;50.50;;;;;;5040969;28;20191;-66
2023/07/07 12:27:51;;;;;;;2.80;1.92;;;28.70;49.30;;;;;;5037808;28;20555;-67
2023/07/07 12:30:33;;;;;;;2.40;1.92;;;28.70;48.90;;;;;;5037596;28;20198;-67
2023/07/07 12:32:59;;;;;;;2.25;2.10;;;28.80;51.30;;;;;;5036572;28;20286;-66
2023/07/07 12:35:31;;;;;;;2.53;1.70;;;29.00;52.10;;;;;;5038454;28;20659;-67
2023/07/07 12:38:04;;;;;;;3.03;1.92;;;30.10;47.80;;;;;;5045100;28;20283;-67
2023/07/07 12:40:30;;;;;;;3.28;1.98;;;29.70;48.40;;;;;;5045517;28;20764;-66
2023/07/07 12:43:19;;;;;;;4.32;1.75;;;29.70;49.80;;;;;;5047544;28;20673;-67
2023/07/07 12:45:46;;;;;;;1.85;1.60;;;30.30;45.70;;;;;;5037851;28;20665;-66
2023/07/07 12:48:20;;;;;;;2.00;1.70;;;29.80;48.00;;;;;;5037391;28;20697;-67
2023/07/07 12:50:48;;;;;;;2.50;2.30;;;30.10;45.80;;;;;;5037215;28;20201;-68
2023/07/07 12:53:26;;;;;;;4.28;1.92;;;30.70;45.90;;;;;;5037698;28;20669;-66
2023/07/07 12:56:05;;;;;;;4.82;2.33;;;31.10;44.80;;;;;;5038362;28;20193;-67
2023/07/07 12:58:46;;;;;;;2.53;1.90;;;31.50;44.30;;;;;;5018799;28;20207;-67
2023/07/07 13:01:36;;;;;;;5.13;1.58;;;31.70;43.00;;;;;;5043218;28;20194;-67
2023/07/07 13:04:11;;;;;;;3.05;1.80;;;31.50;45.50;;;;;;5045190;28;20198;-66
2023/07/07 13:06:44;;;;;;;2.75;2.03;;;30.70;45.50;;;;;;5046179;28;20224;-66